Time,TemperatureF,DewpointF,PressureIn,WindDirection,WindDirectionDegrees,WindSpeedMPH,WindSpeedGustMPH,Humidity,HourlyPrecipIn,Conditions,Clouds,dailyrainin,SolarRadiationWatts/m^2,SoftwareType,DateUTC
2013-06-05 00:12:00,55.0,26.0,-100.00,West,259,5.0,15.0,32,0.00,,,0.02,0.000000,,2013-06-05 06:12:00,
2013-06-05 00:22:00,55.0,26.0,-100.00,West,259,5.0,15.0,32,0.00,,,0.02,0.000000,,2013-06-05 06:22:00,
2013-06-05 00:32:00,55.0,26.0,-100.00,West,259,5.0,15.0,32,0.00,,,0.02,0.000000,,2013-06-05 06:32:00,
2013-06-05 00:42:00,55.0,26.0,-100.00,West,259,5.0,15.0,32,0.00,,,0.02,0.000000,,2013-06-05 06:42:00,
2013-06-05 01:12:00,53.0,25.0,-100.00,SW,235,7.0,12.0,33,0.00,,,0.02,0.000000,,2013-06-05 07:12:00,
2013-06-05 01:22:00,53.0,25.0,-100.00,SW,235,7.0,12.0,33,0.00,,,0.02,0.000000,,2013-06-05 07:22:00,
2013-06-05 01:32:00,53.0,25.0,-100.00,SW,235,7.0,12.0,33,0.00,,,0.02,0.000000,,2013-06-05 07:32:00,
2013-06-05 01:42:00,53.0,25.0,-100.00,SW,235,7.0,12.0,33,0.00,,,0.02,0.000000,,2013-06-05 07:42:00,
2013-06-05 02:12:00,52.0,26.0,-100.00,SW,236,5.0,11.0,36,0.00,,,0.02,0.000000,,2013-06-05 08:12:00,
2013-06-05 02:22:00,52.0,26.0,-100.00,SW,236,5.0,11.0,36,0.00,,,0.02,0.000000,,2013-06-05 08:22:00,
2013-06-05 02:32:00,52.0,26.0,-100.00,SW,236,5.0,11.0,36,0.00,,,0.02,0.000000,,2013-06-05 08:32:00,
2013-06-05 02:42:00,52.0,26.0,-100.00,SW,236,5.0,11.0,36,0.00,,,0.02,0.000000,,2013-06-05 08:42:00,
2013-06-05 03:12:00,50.0,25.0,-100.00,SW,223,6.0,10.0,38,0.00,,,0.02,0.000000,,2013-06-05 09:12:00,
2013-06-05 03:22:00,50.0,25.0,-100.00,SW,223,6.0,10.0,38,0.00,,,0.02,0.000000,,2013-06-05 09:22:00,
2013-06-05 03:32:00,50.0,25.0,-100.00,SW,223,6.0,10.0,38,0.00,,,0.02,0.000000,,2013-06-05 09:32:00,
2013-06-05 03:42:00,50.0,25.0,-100.00,SW,223,6.0,10.0,38,0.00,,,0.02,0.000000,,2013-06-05 09:42:00,
2013-06-05 04:12:00,47.0,24.0,-100.00,SW,214,5.0,10.0,40,0.00,,,0.02,0.000000,,2013-06-05 10:12:00,
2013-06-05 04:22:00,47.0,24.0,-100.00,SW,214,5.0,10.0,40,0.00,,,0.02,0.000000,,2013-06-05 10:22:00,
2013-06-05 04:33:00,47.0,24.0,-100.00,SW,214,5.0,10.0,40,0.00,,,0.02,0.000000,,2013-06-05 10:33:00,
2013-06-05 04:42:00,47.0,24.0,-100.00,SW,214,5.0,10.0,40,0.00,,,0.02,0.000000,,2013-06-05 10:42:00,
2013-06-05 05:12:00,48.0,25.0,-100.00,SW,234,2.0,9.0,41,0.00,,,0.02,0.000000,,2013-06-05 11:12:00,
2013-06-05 05:22:00,48.0,25.0,-100.00,SW,234,2.0,9.0,41,0.00,,,0.02,0.000000,,2013-06-05 11:22:00,
2013-06-05 05:32:00,48.0,25.0,-100.00,SW,234,2.0,9.0,41,0.00,,,0.02,0.000000,,2013-06-05 11:32:00,
2013-06-05 05:42:00,48.0,25.0,-100.00,SW,234,2.0,9.0,41,0.00,,,0.02,0.000000,,2013-06-05 11:42:00,
2013-06-05 06:12:00,45.0,25.0,-100.00,SW,236,7.0,10.0,46,0.00,,,0.02,0.000000,,2013-06-05 12:12:00,
2013-06-05 06:22:00,45.0,25.0,-100.00,SW,236,7.0,10.0,46,0.00,,,0.02,0.000000,,2013-06-05 12:22:00,
2013-06-05 06:32:00,45.0,25.0,-100.00,SW,236,7.0,10.0,46,0.00,,,0.02,0.000000,,2013-06-05 12:32:00,
2013-06-05 06:43:00,45.0,25.0,-100.00,SW,236,7.0,10.0,46,0.00,,,0.02,0.000000,,2013-06-05 12:43:00,
2013-06-05 07:12:00,43.0,26.0,-100.00,SW,223,9.0,11.0,51,0.00,,,-99.99,69.000000,,2013-06-05 13:12:00,
2013-06-05 07:22:00,43.0,26.0,-100.00,SW,223,9.0,11.0,51,0.00,,,-99.99,69.000000,,2013-06-05 13:22:00,
2013-06-05 07:32:00,43.0,26.0,-100.00,SW,223,9.0,11.0,51,0.00,,,-99.99,69.000000,,2013-06-05 13:32:00,
2013-06-05 07:42:00,43.0,26.0,-100.00,SW,223,9.0,11.0,51,0.00,,,-99.99,69.000000,,2013-06-05 13:42:00,
2013-06-05 08:12:00,51.0,27.0,-100.00,SW,231,6.0,11.0,39,0.00,,,0.02,292.000000,,2013-06-05 14:12:00,
2013-06-05 08:42:00,51.0,27.0,-100.00,SW,231,6.0,11.0,39,0.00,,,0.02,292.000000,,2013-06-05 14:42:00,
2013-06-05 09:12:00,60.0,28.0,-100.00,SSW,210,5.0,7.0,30,0.00,,,0.02,545.000000,,2013-06-05 15:12:00,
2013-06-05 09:42:00,60.0,28.0,-100.00,SSW,210,5.0,7.0,30,0.00,,,0.02,545.000000,,2013-06-05 15:42:00,
2013-06-05 10:12:00,61.0,25.0,-100.00,WNW,282,10.0,16.0,25,0.00,,,0.02,788.000000,,2013-06-05 16:12:00,
2013-06-05 10:22:00,61.0,25.0,-100.00,WNW,282,10.0,16.0,25,0.00,,,0.02,788.000000,,2013-06-05 16:22:00,
2013-06-05 10:42:00,61.0,25.0,-100.00,WNW,282,10.0,16.0,25,0.00,,,0.02,788.000000,,2013-06-05 16:42:00,
2013-06-05 11:12:00,64.0,22.0,-100.00,West,278,16.0,25.0,20,0.00,,,0.02,996.000000,,2013-06-05 17:12:00,
2013-06-05 11:22:00,64.0,22.0,-100.00,West,278,16.0,25.0,20,0.00,,,0.02,996.000000,,2013-06-05 17:22:00,
2013-06-05 11:32:00,64.0,22.0,-100.00,West,278,16.0,25.0,20,0.00,,,0.02,996.000000,,2013-06-05 17:32:00,
2013-06-05 11:42:00,64.0,22.0,-100.00,West,278,16.0,25.0,20,0.00,,,0.02,996.000000,,2013-06-05 17:42:00,
2013-06-05 12:12:00,66.0,24.0,-100.00,West,280,15.0,29.0,20,0.00,,,0.02,1154.000000,,2013-06-05 18:12:00,
2013-06-05 12:22:00,66.0,24.0,-100.00,West,280,15.0,29.0,20,0.00,,,0.02,1154.000000,,2013-06-05 18:22:00,
2013-06-05 12:32:00,66.0,24.0,-100.00,West,280,15.0,29.0,20,0.00,,,0.02,1154.000000,,2013-06-05 18:32:00,
2013-06-05 12:42:00,66.0,24.0,-100.00,West,280,15.0,29.0,20,0.00,,,0.02,1154.000000,,2013-06-05 18:42:00,
2013-06-05 13:12:00,68.0,22.0,-100.00,West,280,16.0,33.0,17,0.00,,,0.02,1248.000000,,2013-06-05 19:12:00,
2013-06-05 13:23:00,68.0,22.0,-100.00,West,280,16.0,33.0,17,0.00,,,0.02,1248.000000,,2013-06-05 19:23:00,
2013-06-05 13:32:00,68.0,22.0,-100.00,West,280,16.0,33.0,17,0.00,,,0.02,1248.000000,,2013-06-05 19:32:00,
2013-06-05 13:42:00,68.0,22.0,-100.00,West,280,16.0,33.0,17,0.00,,,0.02,1248.000000,,2013-06-05 19:42:00,
2013-06-05 14:12:00,68.0,19.0,-100.00,WNW,302,13.0,31.0,15,0.00,,,-99.99,1273.000000,,2013-06-05 20:12:00,
2013-06-05 14:22:00,68.0,19.0,-100.00,WNW,302,13.0,31.0,15,0.00,,,-99.99,1273.000000,,2013-06-05 20:22:00,
2013-06-05 14:32:00,68.0,19.0,-100.00,WNW,302,13.0,31.0,15,0.00,,,-99.99,1273.000000,,2013-06-05 20:32:00,
2013-06-05 14:42:00,68.0,19.0,-100.00,WNW,302,13.0,31.0,15,0.00,,,-99.99,1273.000000,,2013-06-05 20:42:00,
2013-06-05 15:12:00,68.0,23.0,-100.00,WNW,300,14.0,30.0,18,0.00,,,0.00,1236.000000,,2013-06-05 21:12:00,
2013-06-05 15:22:00,68.0,23.0,-100.00,WNW,300,14.0,30.0,18,0.00,,,0.00,1236.000000,,2013-06-05 21:22:00,
2013-06-05 15:33:00,68.0,23.0,-100.00,WNW,300,14.0,30.0,18,0.00,,,0.00,1236.000000,,2013-06-05 21:33:00,
2013-06-05 15:43:00,68.0,23.0,-100.00,WNW,300,14.0,30.0,18,0.00,,,0.00,1236.000000,,2013-06-05 21:43:00,
2013-06-05 16:12:00,68.0,25.0,-100.00,WNW,295,16.0,30.0,20,0.00,,,0.00,1124.000000,,2013-06-05 22:12:00,
2013-06-05 16:22:00,68.0,25.0,-100.00,WNW,295,16.0,30.0,20,0.00,,,0.00,1124.000000,,2013-06-05 22:22:00,
2013-06-05 16:32:00,68.0,25.0,-100.00,WNW,295,16.0,30.0,20,0.00,,,0.00,1124.000000,,2013-06-05 22:32:00,
2013-06-05 16:42:00,68.0,25.0,-100.00,WNW,295,16.0,30.0,20,0.00,,,0.00,1124.000000,,2013-06-05 22:42:00,
2013-06-05 17:12:00,68.0,23.0,-100.00,WNW,301,13.0,34.0,18,0.00,,,0.00,955.000000,,2013-06-05 23:12:00,
2013-06-05 17:22:00,68.0,23.0,-100.00,WNW,301,13.0,34.0,18,0.00,,,0.00,955.000000,,2013-06-05 23:22:00,
2013-06-05 17:32:00,68.0,23.0,-100.00,WNW,301,13.0,34.0,18,0.00,,,0.00,955.000000,,2013-06-05 23:32:00,
2013-06-05 17:42:00,68.0,23.0,-100.00,WNW,301,13.0,34.0,18,0.00,,,0.00,955.000000,,2013-06-05 23:42:00,
2013-06-05 18:12:00,69.0,24.0,-100.00,WNW,285,12.0,30.0,18,0.00,,,-99.99,730.000000,,2013-06-06 00:12:00,
2013-06-05 18:22:00,69.0,24.0,-100.00,WNW,285,12.0,30.0,18,0.00,,,-99.99,730.000000,,2013-06-06 00:22:00,
2013-06-05 18:32:00,69.0,24.0,-100.00,WNW,285,12.0,30.0,18,0.00,,,-99.99,730.000000,,2013-06-06 00:32:00,
2013-06-05 18:42:00,69.0,24.0,-100.00,WNW,285,12.0,30.0,18,0.00,,,-99.99,730.000000,,2013-06-06 00:42:00,
2013-06-05 19:12:00,65.0,22.0,-100.00,WNW,299,10.0,28.0,19,0.00,,,0.00,248.000000,,2013-06-06 01:12:00,
2013-06-05 19:22:00,65.0,22.0,-100.00,WNW,299,10.0,28.0,19,0.00,,,0.00,248.000000,,2013-06-06 01:22:00,
2013-06-05 19:32:00,65.0,22.0,-100.00,WNW,299,10.0,28.0,19,0.00,,,0.00,248.000000,,2013-06-06 01:32:00,
2013-06-05 19:42:00,65.0,22.0,-100.00,WNW,299,10.0,28.0,19,0.00,,,0.00,248.000000,,2013-06-06 01:42:00,
2013-06-05 20:12:00,63.0,20.0,-100.00,NW,314,9.0,20.0,19,0.00,,,0.00,35.000000,,2013-06-06 02:12:00,
2013-06-05 20:22:00,63.0,20.0,-100.00,NW,314,9.0,20.0,19,0.00,,,0.00,35.000000,,2013-06-06 02:22:00,
2013-06-05 20:32:00,63.0,20.0,-100.00,NW,314,9.0,20.0,19,0.00,,,0.00,35.000000,,2013-06-06 02:32:00,
2013-06-05 20:42:00,63.0,20.0,-100.00,NW,314,9.0,20.0,19,0.00,,,0.00,35.000000,,2013-06-06 02:42:00,
2013-06-05 21:12:00,57.0,20.0,-100.00,NNE,16,6.0,17.0,23,0.00,,,0.00,22.000000,,2013-06-06 03:12:00,
2013-06-05 21:22:00,57.0,20.0,-100.00,NNE,16,6.0,17.0,23,0.00,,,0.00,22.000000,,2013-06-06 03:22:00,
2013-06-05 21:33:00,57.0,20.0,-100.00,NNE,16,6.0,17.0,23,0.00,,,0.00,22.000000,,2013-06-06 03:33:00,
2013-06-05 21:43:00,57.0,20.0,-100.00,NNE,16,6.0,17.0,23,0.00,,,0.00,22.000000,,2013-06-06 03:43:00,
2013-06-05 22:13:00,54.0,19.0,-100.00,WNW,300,7.0,13.0,25,0.00,,,0.00,0.000000,,2013-06-06 04:13:00,
2013-06-05 22:23:00,54.0,19.0,-100.00,WNW,300,7.0,13.0,25,0.00,,,0.00,0.000000,,2013-06-06 04:23:00,
2013-06-05 22:33:00,54.0,19.0,-100.00,WNW,300,7.0,13.0,25,0.00,,,0.00,0.000000,,2013-06-06 04:33:00,
2013-06-05 22:42:00,54.0,19.0,-100.00,WNW,300,7.0,13.0,25,0.00,,,0.00,0.000000,,2013-06-06 04:42:00,
2013-06-05 23:12:00,52.0,21.0,-100.00,NW,304,6.0,13.0,29,0.00,,,0.00,0.000000,,2013-06-06 05:12:00,
2013-06-05 23:22:00,52.0,21.0,-100.00,NW,304,6.0,13.0,29,0.00,,,0.00,0.000000,,2013-06-06 05:22:00,
2013-06-05 23:32:00,52.0,21.0,-100.00,NW,304,6.0,13.0,29,0.00,,,0.00,0.000000,,2013-06-06 05:32:00,
2013-06-05 23:42:00,52.0,21.0,-100.00,NW,304,6.0,13.0,29,0.00,,,0.00,0.000000,,2013-06-06 05:42:00,